<?xml version="1.0" encoding="UTF-8" standalone="no" ?>
<gpx xmlns="http://www.topografix.com/GPX/1/1" xmlns:xsi="http://www.w3.org/2001/XMLSchema-instance" xsi:schemaLocation="http://www.topografix.com/GPX/1/1 http://www.topografix.com/GPX/1/1/gpx.xsd" version="1.1" creator="VisuGPX - https://www.visugpx.com">
  <metadata>
    <name>15 novembre Aspin</name>
    <desc><![CDATA[Virée avec 2 classes de CE2 de Pessac. Journée magnifique.]]></desc>
  </metadata>
  <trk>
    <name><![CDATA[Col d'Aspin Tracé 15 nov. 2016]]></name>
    <trkseg>
      <trkpt lat="42.94235" lon="0.32744">
        <ele>1520</ele>
        <time>2016-11-15T09:48:55Z</time>
      </trkpt>
      <trkpt lat="42.94244" lon="0.32746">
        <ele>1487.76974464</ele>
        <time>2016-11-15T09:50:00Z</time>
      </trkpt>
      <trkpt lat="42.94252" lon="0.32744">
        <ele>1487.77009208</ele>
        <time>2016-11-15T09:50:16Z</time>
      </trkpt>
      <trkpt lat="42.94261" lon="0.32747">
        <ele>1488.77042544</ele>
        <time>2016-11-15T09:50:25Z</time>
      </trkpt>
      <trkpt lat="42.94269" lon="0.32749">
        <ele>1489.77076464</ele>
        <time>2016-11-15T09:50:35Z</time>
      </trkpt>
      <trkpt lat="42.94278" lon="0.32751">
        <ele>1491.77109924</ele>
        <time>2016-11-15T09:50:44Z</time>
      </trkpt>
      <trkpt lat="42.94285" lon="0.32752">
        <ele>1493.77141648</ele>
        <time>2016-11-15T09:50:54Z</time>
      </trkpt>
      <trkpt lat="42.94294" lon="0.32747">
        <ele>1495.7717428</ele>
        <time>2016-11-15T09:51:05Z</time>
      </trkpt>
      <trkpt lat="42.94302" lon="0.32745">
        <ele>1497.77206636</ele>
        <time>2016-11-15T09:51:16Z</time>
      </trkpt>
      <trkpt lat="42.9431" lon="0.32741">
        <ele>1498.77238212</ele>
        <time>2016-11-15T09:51:27Z</time>
      </trkpt>
      <trkpt lat="42.94317" lon="0.32735">
        <ele>1499.77267492</ele>
        <time>2016-11-15T09:51:38Z</time>
      </trkpt>
      <trkpt lat="42.94324" lon="0.3273">
        <ele>1500.77297012</ele>
        <time>2016-11-15T09:51:50Z</time>
      </trkpt>
      <trkpt lat="42.94333" lon="0.32726">
        <ele>1501.77329916</ele>
        <time>2016-11-15T09:52:02Z</time>
      </trkpt>
      <trkpt lat="42.94338" lon="0.32717">
        <ele>1502.77353532</ele>
        <time>2016-11-15T09:52:22Z</time>
      </trkpt>
      <trkpt lat="42.94346" lon="0.32711">
        <ele>1504.77385076</ele>
        <time>2016-11-15T09:52:41Z</time>
      </trkpt>
      <trkpt lat="42.94354" lon="0.32704">
        <ele>1506.77415016</ele>
        <time>2016-11-15T09:52:59Z</time>
      </trkpt>
      <trkpt lat="42.9436" lon="0.32696">
        <ele>1508.77438688</ele>
        <time>2016-11-15T09:53:16Z</time>
      </trkpt>
      <trkpt lat="42.94365" lon="0.3269">
        <ele>1506.77458672</ele>
        <time>2016-11-15T10:01:07Z</time>
      </trkpt>
      <trkpt lat="42.94369" lon="0.3268">
        <ele>1508.77475548</ele>
        <time>2016-11-15T10:01:12Z</time>
      </trkpt>
      <trkpt lat="42.94376" lon="0.32673">
        <ele>1508.77502212</ele>
        <time>2016-11-15T10:01:20Z</time>
      </trkpt>
      <trkpt lat="42.9438" lon="0.32664">
        <ele>1509.77518456</ele>
        <time>2016-11-15T10:01:27Z</time>
      </trkpt>
      <trkpt lat="42.94384" lon="0.32654">
        <ele>1510.7753556</ele>
        <time>2016-11-15T10:01:35Z</time>
      </trkpt>
      <trkpt lat="42.94391" lon="0.32646">
        <ele>1510.77561816</ele>
        <time>2016-11-15T10:01:46Z</time>
      </trkpt>
      <trkpt lat="42.94394" lon="0.32635">
        <ele>1512.77575236</ele>
        <time>2016-11-15T10:01:52Z</time>
      </trkpt>
      <trkpt lat="42.94399" lon="0.32625">
        <ele>1514.77595872</ele>
        <time>2016-11-15T10:02:04Z</time>
      </trkpt>
      <trkpt lat="42.94404" lon="0.32616">
        <ele>1516.7761616</ele>
        <time>2016-11-15T10:02:14Z</time>
      </trkpt>
      <trkpt lat="42.9441" lon="0.32607">
        <ele>1520.7763898</ele>
        <time>2016-11-15T10:03:04Z</time>
      </trkpt>
      <trkpt lat="42.94417" lon="0.326">
        <ele>1517.77666064</ele>
        <time>2016-11-15T10:03:13Z</time>
      </trkpt>
      <trkpt lat="42.94423" lon="0.32591">
        <ele>1517.77691212</ele>
        <time>2016-11-15T10:03:24Z</time>
      </trkpt>
      <trkpt lat="42.94427" lon="0.32581">
        <ele>1518.777092</ele>
        <time>2016-11-15T10:03:32Z</time>
      </trkpt>
      <trkpt lat="42.94431" lon="0.3257">
        <ele>1520.77724208</ele>
        <time>2016-11-15T10:03:41Z</time>
      </trkpt>
      <trkpt lat="42.94439" lon="0.32568">
        <ele>1514.77756144</ele>
        <time>2016-11-15T10:03:54Z</time>
      </trkpt>
      <trkpt lat="42.94444" lon="0.32558">
        <ele>1515.77774484</ele>
        <time>2016-11-15T10:04:03Z</time>
      </trkpt>
      <trkpt lat="42.94446" lon="0.32549">
        <ele>1518.77785196</ele>
        <time>2016-11-15T10:04:10Z</time>
      </trkpt>
      <trkpt lat="42.9445" lon="0.32538">
        <ele>1521.77799048</ele>
        <time>2016-11-15T10:04:19Z</time>
      </trkpt>
      <trkpt lat="42.94455" lon="0.32528">
        <ele>1527.77818744</ele>
        <time>2016-11-15T10:11:19Z</time>
      </trkpt>
      <trkpt lat="42.94462" lon="0.32521">
        <ele>1528.77846836</ele>
        <time>2016-11-15T10:12:19Z</time>
      </trkpt>
      <trkpt lat="42.94469" lon="0.32513">
        <ele>1531.77874288</ele>
        <time>2016-11-15T10:12:33Z</time>
      </trkpt>
      <trkpt lat="42.94475" lon="0.32504">
        <ele>1530.77899352</ele>
        <time>2016-11-15T10:12:45Z</time>
      </trkpt>
      <trkpt lat="42.9448" lon="0.32495">
        <ele>1529.77918508</ele>
        <time>2016-11-15T10:12:54Z</time>
      </trkpt>
      <trkpt lat="42.94486" lon="0.32489">
        <ele>1530.77944196</ele>
        <time>2016-11-15T10:13:04Z</time>
      </trkpt>
      <trkpt lat="42.94492" lon="0.3248">
        <ele>1532.7796816</ele>
        <time>2016-11-15T10:13:17Z</time>
      </trkpt>
      <trkpt lat="42.94498" lon="0.32471">
        <ele>1532.7798994</ele>
        <time>2016-11-15T10:13:27Z</time>
      </trkpt>
      <trkpt lat="42.94505" lon="0.32466">
        <ele>1533.7801928</ele>
        <time>2016-11-15T10:13:46Z</time>
      </trkpt>
      <trkpt lat="42.94511" lon="0.32458">
        <ele>1535.78044448</ele>
        <time>2016-11-15T10:14:02Z</time>
      </trkpt>
      <trkpt lat="42.94517" lon="0.32449">
        <ele>1538.78068436</ele>
        <time>2016-11-15T10:14:13Z</time>
      </trkpt>
      <trkpt lat="42.94524" lon="0.32442">
        <ele>1538.78096256</ele>
        <time>2016-11-15T10:14:25Z</time>
      </trkpt>
      <trkpt lat="42.94531" lon="0.32435">
        <ele>1539.78124076</ele>
        <time>2016-11-15T10:14:36Z</time>
      </trkpt>
      <trkpt lat="42.94538" lon="0.32428">
        <ele>1539.78153468</ele>
        <time>2016-11-15T10:14:48Z</time>
      </trkpt>
      <trkpt lat="42.94545" lon="0.3242">
        <ele>1541.7817864</ele>
        <time>2016-11-15T10:15:00Z</time>
      </trkpt>
      <trkpt lat="42.94551" lon="0.32413">
        <ele>1543.78204136</ele>
        <time>2016-11-15T10:15:10Z</time>
      </trkpt>
      <trkpt lat="42.94556" lon="0.32403">
        <ele>1544.7822396</ele>
        <time>2016-11-15T10:15:20Z</time>
      </trkpt>
      <trkpt lat="42.94561" lon="0.32394">
        <ele>1546.7824402</ele>
        <time>2016-11-15T10:15:32Z</time>
      </trkpt>
      <trkpt lat="42.94567" lon="0.32386">
        <ele>1545.78268476</ele>
        <time>2016-11-15T10:15:41Z</time>
      </trkpt>
      <trkpt lat="42.94574" lon="0.32379">
        <ele>1547.78294444</ele>
        <time>2016-11-15T10:15:54Z</time>
      </trkpt>
      <trkpt lat="42.9458" lon="0.32371">
        <ele>1546.78318536</ele>
        <time>2016-11-15T10:16:09Z</time>
      </trkpt>
      <trkpt lat="42.94587" lon="0.32364">
        <ele>1545.78346756</ele>
        <time>2016-11-15T10:16:25Z</time>
      </trkpt>
      <trkpt lat="42.94594" lon="0.32358">
        <ele>1550.78376636</ele>
        <time>2016-11-15T10:17:06Z</time>
      </trkpt>
      <trkpt lat="42.94603" lon="0.32358">
        <ele>1553.78411676</ele>
        <time>2016-11-15T10:17:23Z</time>
      </trkpt>
      <trkpt lat="42.9461" lon="0.32352">
        <ele>1556.78439756</ele>
        <time>2016-11-15T10:17:37Z</time>
      </trkpt>
      <trkpt lat="42.94617" lon="0.32346">
        <ele>1557.78468932</ele>
        <time>2016-11-15T10:17:50Z</time>
      </trkpt>
      <trkpt lat="42.94624" lon="0.32339">
        <ele>1558.78496148</ele>
        <time>2016-11-15T10:18:32Z</time>
      </trkpt>
      <trkpt lat="42.94632" lon="0.32334">
        <ele>1560.78529512</ele>
        <time>2016-11-15T10:18:48Z</time>
      </trkpt>
      <trkpt lat="42.94639" lon="0.32327">
        <ele>1562.785576</ele>
        <time>2016-11-15T10:19:02Z</time>
      </trkpt>
      <trkpt lat="42.94646" lon="0.3232">
        <ele>1564.78584588</ele>
        <time>2016-11-15T10:19:19Z</time>
      </trkpt>
      <trkpt lat="42.94655" lon="0.32316">
        <ele>1564.78618028</ele>
        <time>2016-11-15T10:19:44Z</time>
      </trkpt>
      <trkpt lat="42.94663" lon="0.32312">
        <ele>1566.78651828</ele>
        <time>2016-11-15T10:20:21Z</time>
      </trkpt>
      <trkpt lat="42.94671" lon="0.32306">
        <ele>1566.78681956</ele>
        <time>2016-11-15T10:25:55Z</time>
      </trkpt>
      <trkpt lat="42.94679" lon="0.32302">
        <ele>1570.78714808</ele>
        <time>2016-11-15T10:26:35Z</time>
      </trkpt>
      <trkpt lat="42.94686" lon="0.32297">
        <ele>1575.78745076</ele>
        <time>2016-11-15T10:26:53Z</time>
      </trkpt>
      <trkpt lat="42.94691" lon="0.32288">
        <ele>1574.78763272</ele>
        <time>2016-11-15T10:27:05Z</time>
      </trkpt>
      <trkpt lat="42.94698" lon="0.32281">
        <ele>1574.78790408</ele>
        <time>2016-11-15T10:27:23Z</time>
      </trkpt>
      <trkpt lat="42.94704" lon="0.32273">
        <ele>1576.78815972</ele>
        <time>2016-11-15T10:27:44Z</time>
      </trkpt>
      <trkpt lat="42.9471" lon="0.32264">
        <ele>1576.7884012</ele>
        <time>2016-11-15T10:28:03Z</time>
      </trkpt>
      <trkpt lat="42.94715" lon="0.32254">
        <ele>1579.788587</ele>
        <time>2016-11-15T10:28:15Z</time>
      </trkpt>
      <trkpt lat="42.94717" lon="0.32243">
        <ele>1579.788685</ele>
        <time>2016-11-15T10:28:29Z</time>
      </trkpt>
      <trkpt lat="42.94718" lon="0.32233">
        <ele>1581.788726</ele>
        <time>2016-11-15T10:28:39Z</time>
      </trkpt>
      <trkpt lat="42.9472" lon="0.32221">
        <ele>1585.78879848</ele>
        <time>2016-11-15T10:28:55Z</time>
      </trkpt>
      <trkpt lat="42.94725" lon="0.32212">
        <ele>1584.7889882</ele>
        <time>2016-11-15T10:29:05Z</time>
      </trkpt>
      <trkpt lat="42.94727" lon="0.32201">
        <ele>1588.78908184</ele>
        <time>2016-11-15T10:29:11Z</time>
      </trkpt>
      <trkpt lat="42.94732" lon="0.32193">
        <ele>1591.78927664</ele>
        <time>2016-11-15T10:29:29Z</time>
      </trkpt>
      <trkpt lat="42.94738" lon="0.32185">
        <ele>1591.78953756</ele>
        <time>2016-11-15T10:29:41Z</time>
      </trkpt>
      <trkpt lat="42.94736" lon="0.32174">
        <ele>1590.78944464</ele>
        <time>2016-11-15T10:31:15Z</time>
      </trkpt>
      <trkpt lat="42.94743" lon="0.32166">
        <ele>1593.78971364</ele>
        <time>2016-11-15T10:31:31Z</time>
      </trkpt>
      <trkpt lat="42.94749" lon="0.32158">
        <ele>1594.78995932</ele>
        <time>2016-11-15T10:31:42Z</time>
      </trkpt>
      <trkpt lat="42.94755" lon="0.32151">
        <ele>1593.79020692</ele>
        <time>2016-11-15T10:31:54Z</time>
      </trkpt>
      <trkpt lat="42.94761" lon="0.32143">
        <ele>1594.79043192</ele>
        <time>2016-11-15T10:32:04Z</time>
      </trkpt>
      <trkpt lat="42.94766" lon="0.32135">
        <ele>1594.79064096</ele>
        <time>2016-11-15T10:32:14Z</time>
      </trkpt>
      <trkpt lat="42.94772" lon="0.32128">
        <ele>1593.79089316</ele>
        <time>2016-11-15T10:32:23Z</time>
      </trkpt>
      <trkpt lat="42.94778" lon="0.32119">
        <ele>1594.79113436</ele>
        <time>2016-11-15T10:32:38Z</time>
      </trkpt>
      <trkpt lat="42.94786" lon="0.32113">
        <ele>1594.79142608</ele>
        <time>2016-11-15T10:32:59Z</time>
      </trkpt>
      <trkpt lat="42.94794" lon="0.32107">
        <ele>1594.7917432</ele>
        <time>2016-11-15T10:33:10Z</time>
      </trkpt>
      <trkpt lat="42.94801" lon="0.32102">
        <ele>1592.79205464</ele>
        <time>2016-11-15T10:33:23Z</time>
      </trkpt>
      <trkpt lat="42.94809" lon="0.32096">
        <ele>1594.7923642</ele>
        <time>2016-11-15T10:33:37Z</time>
      </trkpt>
      <trkpt lat="42.94817" lon="0.32091">
        <ele>1595.79268648</ele>
        <time>2016-11-15T10:33:50Z</time>
      </trkpt>
      <trkpt lat="42.94825" lon="0.32086">
        <ele>1596.79300848</ele>
        <time>2016-11-15T10:34:05Z</time>
      </trkpt>
      <trkpt lat="42.94833" lon="0.32081">
        <ele>1599.79332056</ele>
        <time>2016-11-15T10:35:05Z</time>
      </trkpt>
      <trkpt lat="42.94841" lon="0.32078">
        <ele>1599.7936442</ele>
        <time>2016-11-15T10:35:46Z</time>
      </trkpt>
      <trkpt lat="42.94849" lon="0.32072">
        <ele>1600.79394088</ele>
        <time>2016-11-15T10:36:02Z</time>
      </trkpt>
      <trkpt lat="42.94856" lon="0.32066">
        <ele>1599.79423248</ele>
        <time>2016-11-15T10:36:17Z</time>
      </trkpt>
      <trkpt lat="42.94862" lon="0.32059">
        <ele>1600.7944882</ele>
        <time>2016-11-15T10:36:31Z</time>
      </trkpt>
      <trkpt lat="42.9487" lon="0.32053">
        <ele>1601.7947878</ele>
        <time>2016-11-15T10:36:41Z</time>
      </trkpt>
      <trkpt lat="42.94876" lon="0.32046">
        <ele>1602.79505788</ele>
        <time>2016-11-15T10:36:54Z</time>
      </trkpt>
      <trkpt lat="42.94881" lon="0.32035">
        <ele>1602.79522116</ele>
        <time>2016-11-15T10:37:12Z</time>
      </trkpt>
      <trkpt lat="42.94887" lon="0.32026">
        <ele>1602.7954614</ele>
        <time>2016-11-15T10:37:30Z</time>
      </trkpt>
      <trkpt lat="42.94893" lon="0.32017">
        <ele>1603.79570608</ele>
        <time>2016-11-15T10:37:45Z</time>
      </trkpt>
      <trkpt lat="42.949" lon="0.32011">
        <ele>1605.79599564</ele>
        <time>2016-11-15T10:37:56Z</time>
      </trkpt>
      <trkpt lat="42.94907" lon="0.32004">
        <ele>1605.79627364</ele>
        <time>2016-11-15T10:38:05Z</time>
      </trkpt>
      <trkpt lat="42.94913" lon="0.31996">
        <ele>1606.79652636</ele>
        <time>2016-11-15T10:38:17Z</time>
      </trkpt>
      <trkpt lat="42.94919" lon="0.31988">
        <ele>1608.79676176</ele>
        <time>2016-11-15T10:38:28Z</time>
      </trkpt>
      <trkpt lat="42.94926" lon="0.3198">
        <ele>1609.79703384</ele>
        <time>2016-11-15T10:38:39Z</time>
      </trkpt>
      <trkpt lat="42.94932" lon="0.31972">
        <ele>1611.79728124</ele>
        <time>2016-11-15T10:38:54Z</time>
      </trkpt>
      <trkpt lat="42.94935" lon="0.31962">
        <ele>1614.797405</ele>
        <time>2016-11-15T10:39:26Z</time>
      </trkpt>
      <trkpt lat="42.94932" lon="0.31951">
        <ele>1613.797296</ele>
        <time>2016-11-15T10:39:35Z</time>
      </trkpt>
      <trkpt lat="42.94929" lon="0.3194">
        <ele>1614.7971426</ele>
        <time>2016-11-15T10:39:48Z</time>
      </trkpt>
      <trkpt lat="42.94926" lon="0.31929">
        <ele>1615.79702656</ele>
        <time>2016-11-15T10:40:07Z</time>
      </trkpt>
      <trkpt lat="42.94922" lon="0.31918">
        <ele>1617.79688772</ele>
        <time>2016-11-15T10:40:35Z</time>
      </trkpt>
      <trkpt lat="42.94919" lon="0.31907">
        <ele>1617.79674616</ele>
        <time>2016-11-15T10:41:03Z</time>
      </trkpt>
      <trkpt lat="42.94918" lon="0.31894">
        <ele>1621.79671712</ele>
        <time>2016-11-15T10:41:25Z</time>
      </trkpt>
      <trkpt lat="42.9492" lon="0.31883">
        <ele>1622.7968014</ele>
        <time>2016-11-15T10:41:47Z</time>
      </trkpt>
      <trkpt lat="42.94922" lon="0.31871">
        <ele>1624.79688804</ele>
        <time>2016-11-15T10:42:00Z</time>
      </trkpt>
      <trkpt lat="42.94924" lon="0.3186">
        <ele>1624.79696388</ele>
        <time>2016-11-15T10:42:14Z</time>
      </trkpt>
      <trkpt lat="42.94927" lon="0.31849">
        <ele>1626.79709188</ele>
        <time>2016-11-15T10:42:42Z</time>
      </trkpt>
      <trkpt lat="42.94935" lon="0.31844">
        <ele>1625.7974162</ele>
        <time>2016-11-15T10:43:09Z</time>
      </trkpt>
      <trkpt lat="42.94942" lon="0.31836">
        <ele>1627.79768816</ele>
        <time>2016-11-15T10:43:33Z</time>
      </trkpt>
      <trkpt lat="42.94949" lon="0.31828">
        <ele>1629.79793916</ele>
        <time>2016-11-15T10:43:52Z</time>
      </trkpt>
      <trkpt lat="42.94956" lon="0.31824">
        <ele>1626.7982388</ele>
        <time>2016-11-15T10:51:30Z</time>
      </trkpt>
      <trkpt lat="42.94962" lon="0.31816">
        <ele>1628.7984846</ele>
        <time>2016-11-15T10:51:46Z</time>
      </trkpt>
      <trkpt lat="42.94969" lon="0.31808">
        <ele>1627.79874424</ele>
        <time>2016-11-15T10:51:53Z</time>
      </trkpt>
      <trkpt lat="42.94971" lon="0.31797">
        <ele>1629.79885336</ele>
        <time>2016-11-15T10:52:04Z</time>
      </trkpt>
      <trkpt lat="42.94977" lon="0.31788">
        <ele>1629.79906504</ele>
        <time>2016-11-15T10:52:16Z</time>
      </trkpt>
      <trkpt lat="42.9498" lon="0.31777">
        <ele>1631.79920428</ele>
        <time>2016-11-15T10:52:25Z</time>
      </trkpt>
      <trkpt lat="42.94985" lon="0.31769">
        <ele>1629.79937972</ele>
        <time>2016-11-15T10:52:45Z</time>
      </trkpt>
      <trkpt lat="42.9499" lon="0.3176">
        <ele>1631.7996032</ele>
        <time>2016-11-15T10:52:53Z</time>
      </trkpt>
      <trkpt lat="42.94994" lon="0.3175">
        <ele>1631.79975196</ele>
        <time>2016-11-15T10:53:01Z</time>
      </trkpt>
      <trkpt lat="42.95" lon="0.31742">
        <ele>1632.79999484</ele>
        <time>2016-11-15T10:53:07Z</time>
      </trkpt>
      <trkpt lat="42.95003" lon="0.31732">
        <ele>1634.800136</ele>
        <time>2016-11-15T10:53:18Z</time>
      </trkpt>
      <trkpt lat="42.95009" lon="0.31723">
        <ele>1632.800373</ele>
        <time>2016-11-15T10:53:32Z</time>
      </trkpt>
      <trkpt lat="42.95013" lon="0.31715">
        <ele>1630.80051552</ele>
        <time>2016-11-15T10:53:39Z</time>
      </trkpt>
      <trkpt lat="42.95009" lon="0.31706">
        <ele>1630.80033992</ele>
        <time>2016-11-15T10:53:43Z</time>
      </trkpt>
      <trkpt lat="42.95013" lon="0.31698">
        <ele>1631.80053084</ele>
        <time>2016-11-15T10:53:58Z</time>
      </trkpt>
      <trkpt lat="42.95013" lon="0.31686">
        <ele>1633.80050924</ele>
        <time>2016-11-15T10:54:08Z</time>
      </trkpt>
      <trkpt lat="42.95011" lon="0.31678">
        <ele>1631.80044336</ele>
        <time>2016-11-15T10:54:20Z</time>
      </trkpt>
      <trkpt lat="42.9502" lon="0.31677">
        <ele>1632.80079012</ele>
        <time>2016-11-15T10:54:26Z</time>
      </trkpt>
      <trkpt lat="42.95017" lon="0.31666">
        <ele>1636.80066564</ele>
        <time>2016-11-15T10:55:06Z</time>
      </trkpt>
      <trkpt lat="42.95019" lon="0.31656">
        <ele>1634.80074836</ele>
        <time>2016-11-15T10:55:16Z</time>
      </trkpt>
      <trkpt lat="42.95016" lon="0.31644">
        <ele>1637.80064556</ele>
        <time>2016-11-15T10:55:25Z</time>
      </trkpt>
      <trkpt lat="42.95015" lon="0.31632">
        <ele>1637.80059824</ele>
        <time>2016-11-15T10:55:39Z</time>
      </trkpt>
      <trkpt lat="42.95015" lon="0.3162">
        <ele>1636.80057972</ele>
        <time>2016-11-15T10:56:05Z</time>
      </trkpt>
      <trkpt lat="42.9501" lon="0.31611">
        <ele>1636.8003908</ele>
        <time>2016-11-15T10:56:29Z</time>
      </trkpt>
      <trkpt lat="42.95005" lon="0.31601">
        <ele>1635.80018336</ele>
        <time>2016-11-15T10:56:45Z</time>
      </trkpt>
      <trkpt lat="42.94998" lon="0.31593">
        <ele>1638.7999114</ele>
        <time>2016-11-15T10:57:22Z</time>
      </trkpt>
      <trkpt lat="42.94994" lon="0.31584">
        <ele>1637.79974416</ele>
        <time>2016-11-15T10:57:27Z</time>
      </trkpt>
      <trkpt lat="42.9499" lon="0.31576">
        <ele>1640.79958512</ele>
        <time>2016-11-15T10:57:40Z</time>
      </trkpt>
      <trkpt lat="42.94985" lon="0.31567">
        <ele>1641.79939024</ele>
        <time>2016-11-15T10:57:46Z</time>
      </trkpt>
      <trkpt lat="42.94981" lon="0.31558">
        <ele>1641.79923964</ele>
        <time>2016-11-15T10:57:56Z</time>
      </trkpt>
      <trkpt lat="42.94978" lon="0.31547">
        <ele>1644.79910088</ele>
        <time>2016-11-15T10:58:14Z</time>
      </trkpt>
      <trkpt lat="42.94978" lon="0.31536">
        <ele>1643.7991134</ele>
        <time>2016-11-15T10:58:32Z</time>
      </trkpt>
      <trkpt lat="42.94979" lon="0.31524">
        <ele>1642.79915084</ele>
        <time>2016-11-15T10:58:39Z</time>
      </trkpt>
      <trkpt lat="42.94976" lon="0.31514">
        <ele>1644.79903308</ele>
        <time>2016-11-15T10:58:44Z</time>
      </trkpt>
      <trkpt lat="42.94975" lon="0.31504">
        <ele>1643.79898608</ele>
        <time>2016-11-15T10:58:59Z</time>
      </trkpt>
      <trkpt lat="42.94972" lon="0.31492">
        <ele>1645.79887196</ele>
        <time>2016-11-15T10:59:04Z</time>
      </trkpt>
      <trkpt lat="42.94973" lon="0.3148">
        <ele>1643.79893172</ele>
        <time>2016-11-15T11:00:51Z</time>
      </trkpt>
      <trkpt lat="42.94973" lon="0.31468">
        <ele>1644.7989266</ele>
        <time>2016-11-15T11:02:51Z</time>
      </trkpt>
      <trkpt lat="42.94972" lon="0.31456">
        <ele>1644.79887524</ele>
        <time>2016-11-15T11:03:04Z</time>
      </trkpt>
      <trkpt lat="42.94969" lon="0.31445">
        <ele>1643.79877016</ele>
        <time>2016-11-15T11:03:14Z</time>
      </trkpt>
      <trkpt lat="42.94967" lon="0.31433">
        <ele>1643.79866832</ele>
        <time>2016-11-15T11:03:24Z</time>
      </trkpt>
      <trkpt lat="42.94964" lon="0.31423">
        <ele>1643.79855848</ele>
        <time>2016-11-15T11:03:31Z</time>
      </trkpt>
      <trkpt lat="42.9496" lon="0.31413">
        <ele>1644.79841148</ele>
        <time>2016-11-15T11:03:41Z</time>
      </trkpt>
      <trkpt lat="42.94957" lon="0.31402">
        <ele>1645.79828572</ele>
        <time>2016-11-15T11:03:53Z</time>
      </trkpt>
      <trkpt lat="42.94952" lon="0.31392">
        <ele>1645.79809608</ele>
        <time>2016-11-15T11:04:02Z</time>
      </trkpt>
      <trkpt lat="42.94948" lon="0.31383">
        <ele>1646.79790308</ele>
        <time>2016-11-15T11:04:10Z</time>
      </trkpt>
      <trkpt lat="42.94942" lon="0.31374">
        <ele>1646.79766864</ele>
        <time>2016-11-15T11:04:25Z</time>
      </trkpt>
      <trkpt lat="42.94936" lon="0.31365">
        <ele>1644.7974322</ele>
        <time>2016-11-15T11:04:37Z</time>
      </trkpt>
      <trkpt lat="42.9493" lon="0.31357">
        <ele>1645.79720836</ele>
        <time>2016-11-15T11:04:48Z</time>
      </trkpt>
      <trkpt lat="42.94923" lon="0.31351">
        <ele>1646.79691748</ele>
        <time>2016-11-15T11:05:02Z</time>
      </trkpt>
      <trkpt lat="42.94925" lon="0.31339">
        <ele>1649.79697968</ele>
        <time>2016-11-15T11:05:15Z</time>
      </trkpt>
      <trkpt lat="42.94929" lon="0.31329">
        <ele>1651.79715792</ele>
        <time>2016-11-15T11:05:28Z</time>
      </trkpt>
      <trkpt lat="42.94927" lon="0.31318">
        <ele>1650.79706004</ele>
        <time>2016-11-15T11:05:41Z</time>
      </trkpt>
      <trkpt lat="42.94926" lon="0.31307">
        <ele>1649.79702632</ele>
        <time>2016-11-15T11:05:51Z</time>
      </trkpt>
      <trkpt lat="42.94924" lon="0.31295">
        <ele>1648.79695412</ele>
        <time>2016-11-15T11:06:02Z</time>
      </trkpt>
      <trkpt lat="42.94918" lon="0.31287">
        <ele>1647.79670804</ele>
        <time>2016-11-15T11:06:33Z</time>
      </trkpt>
      <trkpt lat="42.94926" lon="0.3129">
        <ele>1649.7970204</ele>
        <time>2016-11-15T11:07:04Z</time>
      </trkpt>
      <trkpt lat="42.94932" lon="0.31298">
        <ele>1650.797287</ele>
        <time>2016-11-15T11:07:18Z</time>
      </trkpt>
      <trkpt lat="42.94941" lon="0.31302">
        <ele>1653.79761864</ele>
        <time>2016-11-15T11:07:33Z</time>
      </trkpt>
      <trkpt lat="42.94947" lon="0.31311">
        <ele>1654.79785968</ele>
        <time>2016-11-15T11:07:48Z</time>
      </trkpt>
      <trkpt lat="42.94955" lon="0.31312">
        <ele>1654.79819356</ele>
        <time>2016-11-15T11:07:59Z</time>
      </trkpt>
      <trkpt lat="42.94963" lon="0.31309">
        <ele>1653.7985348</ele>
        <time>2016-11-15T11:08:14Z</time>
      </trkpt>
      <trkpt lat="42.94972" lon="0.31311">
        <ele>1656.79888652</ele>
        <time>2016-11-15T11:08:35Z</time>
      </trkpt>
      <trkpt lat="42.94971" lon="0.31323">
        <ele>1660.79885728</ele>
        <time>2016-11-15T11:11:05Z</time>
      </trkpt>
      <trkpt lat="42.94977" lon="0.31332">
        <ele>1662.79908536</ele>
        <time>2016-11-15T11:11:20Z</time>
      </trkpt>
      <trkpt lat="42.94985" lon="0.31327">
        <ele>1656.79938904</ele>
        <time>2016-11-15T11:12:30Z</time>
      </trkpt>
      <trkpt lat="42.94991" lon="0.31334">
        <ele>1663.7996432</ele>
        <time>2016-11-15T11:13:41Z</time>
      </trkpt>
      <trkpt lat="42.94993" lon="0.31345">
        <ele>1665.79972292</ele>
        <time>2016-11-15T11:13:54Z</time>
      </trkpt>
      <trkpt lat="42.94996" lon="0.31357">
        <ele>1668.7998194</ele>
        <time>2016-11-15T11:14:13Z</time>
      </trkpt>
      <trkpt lat="42.94995" lon="0.31368">
        <ele>1668.7998074</ele>
        <time>2016-11-15T11:14:32Z</time>
      </trkpt>
      <trkpt lat="42.94998" lon="0.31379">
        <ele>1667.79990732</ele>
        <time>2016-11-15T11:14:44Z</time>
      </trkpt>
      <trkpt lat="42.95003" lon="0.31389">
        <ele>1668.80010524</ele>
        <time>2016-11-15T11:15:03Z</time>
      </trkpt>
      <trkpt lat="42.95006" lon="0.31399">
        <ele>1668.80024916</ele>
        <time>2016-11-15T11:15:21Z</time>
      </trkpt>
      <trkpt lat="42.95012" lon="0.31406">
        <ele>1659.80047896</ele>
        <time>2016-11-15T11:15:38Z</time>
      </trkpt>
      <trkpt lat="42.95019" lon="0.31413">
        <ele>1671.80075116</ele>
        <time>2016-11-15T11:15:49Z</time>
      </trkpt>
      <trkpt lat="42.95024" lon="0.31422">
        <ele>1675.80097652</ele>
        <time>2016-11-15T11:16:05Z</time>
      </trkpt>
      <trkpt lat="42.95033" lon="0.31423">
        <ele>1677.80132228</ele>
        <time>2016-11-15T11:16:31Z</time>
      </trkpt>
      <trkpt lat="42.95041" lon="0.3142">
        <ele>1678.80164152</ele>
        <time>2016-11-15T11:17:27Z</time>
      </trkpt>
      <trkpt lat="42.9505" lon="0.31421">
        <ele>1682.80198308</ele>
        <time>2016-11-15T11:17:40Z</time>
      </trkpt>
      <trkpt lat="42.95058" lon="0.31425">
        <ele>1682.8023138</ele>
        <time>2016-11-15T11:18:01Z</time>
      </trkpt>
      <trkpt lat="42.95063" lon="0.31434">
        <ele>1684.80250544</ele>
        <time>2016-11-15T11:18:21Z</time>
      </trkpt>
      <trkpt lat="42.95069" lon="0.31442">
        <ele>1685.80274392</ele>
        <time>2016-11-15T11:18:36Z</time>
      </trkpt>
      <trkpt lat="42.95076" lon="0.31446">
        <ele>1689.80303792</ele>
        <time>2016-11-15T11:18:44Z</time>
      </trkpt>
      <trkpt lat="42.95082" lon="0.31455">
        <ele>1691.80326792</ele>
        <time>2016-11-15T11:19:02Z</time>
      </trkpt>
      <trkpt lat="42.95088" lon="0.31463">
        <ele>1691.80350104</ele>
        <time>2016-11-15T11:19:13Z</time>
      </trkpt>
      <trkpt lat="42.95093" lon="0.31472">
        <ele>1695.80370236</ele>
        <time>2016-11-15T11:19:22Z</time>
      </trkpt>
      <trkpt lat="42.95092" lon="0.31483">
        <ele>1692.8036798</ele>
        <time>2016-11-15T11:19:36Z</time>
      </trkpt>
      <trkpt lat="42.95091" lon="0.31495">
        <ele>1690.80364328</ele>
        <time>2016-11-15T11:19:48Z</time>
      </trkpt>
      <trkpt lat="42.95092" lon="0.31505">
        <ele>1690.80367704</ele>
        <time>2016-11-15T11:20:01Z</time>
      </trkpt>
      <trkpt lat="42.95092" lon="0.31517">
        <ele>1690.80367368</ele>
        <time>2016-11-15T11:20:11Z</time>
      </trkpt>
      <trkpt lat="42.95092" lon="0.31529">
        <ele>1694.80368476</ele>
        <time>2016-11-15T11:20:21Z</time>
      </trkpt>
      <trkpt lat="42.95095" lon="0.3154">
        <ele>1692.8037986</ele>
        <time>2016-11-15T11:20:34Z</time>
      </trkpt>
      <trkpt lat="42.95099" lon="0.31551">
        <ele>1691.80394256</ele>
        <time>2016-11-15T11:20:43Z</time>
      </trkpt>
      <trkpt lat="42.95102" lon="0.31562">
        <ele>1694.8040864</ele>
        <time>2016-11-15T11:21:06Z</time>
      </trkpt>
      <trkpt lat="42.95103" lon="0.31574">
        <ele>1693.80410364</ele>
        <time>2016-11-15T11:21:15Z</time>
      </trkpt>
      <trkpt lat="42.95104" lon="0.31586">
        <ele>1694.80417372</ele>
        <time>2016-11-15T11:21:28Z</time>
      </trkpt>
      <trkpt lat="42.95109" lon="0.31596">
        <ele>1694.8043648</ele>
        <time>2016-11-15T11:21:43Z</time>
      </trkpt>
      <trkpt lat="42.95117" lon="0.31601">
        <ele>1696.80468744</ele>
        <time>2016-11-15T11:21:57Z</time>
      </trkpt>
      <trkpt lat="42.95123" lon="0.3161">
        <ele>1697.8049226</ele>
        <time>2016-11-15T11:22:27Z</time>
      </trkpt>
      <trkpt lat="42.95132" lon="0.3161">
        <ele>1697.80527312</ele>
        <time>2016-11-15T11:22:40Z</time>
      </trkpt>
      <trkpt lat="42.95141" lon="0.31608">
        <ele>1699.80562592</ele>
        <time>2016-11-15T11:22:54Z</time>
      </trkpt>
      <trkpt lat="42.95149" lon="0.31613">
        <ele>1701.80595596</ele>
        <time>2016-11-15T11:23:12Z</time>
      </trkpt>
      <trkpt lat="42.95154" lon="0.31622">
        <ele>1702.80617584</ele>
        <time>2016-11-15T11:23:28Z</time>
      </trkpt>
      <trkpt lat="42.95154" lon="0.31634">
        <ele>1704.80615896</ele>
        <time>2016-11-15T11:24:13Z</time>
      </trkpt>
      <trkpt lat="42.95157" lon="0.31646">
        <ele>1709.80625832</ele>
        <time>2016-11-15T11:25:42Z</time>
      </trkpt>
      <trkpt lat="42.95156" lon="0.31657">
        <ele>1712.80621968</ele>
        <time>2016-11-15T11:26:19Z</time>
      </trkpt>
      <trkpt lat="42.95152" lon="0.31668">
        <ele>1714.80609576</ele>
        <time>2016-11-15T11:26:53Z</time>
      </trkpt>
      <trkpt lat="42.95149" lon="0.31679">
        <ele>1716.80593804</ele>
        <time>2016-11-15T11:27:26Z</time>
      </trkpt>
      <trkpt lat="42.95143" lon="0.31688">
        <ele>1719.80571004</ele>
        <time>2016-11-15T11:27:52Z</time>
      </trkpt>
      <trkpt lat="42.95141" lon="0.31699">
        <ele>1721.80563528</ele>
        <time>2016-11-15T11:28:06Z</time>
      </trkpt>
      <trkpt lat="42.95137" lon="0.31709">
        <ele>1725.80548524</ele>
        <time>2016-11-15T11:28:50Z</time>
      </trkpt>
      <trkpt lat="42.95135" lon="0.3172">
        <ele>1724.80540512</ele>
        <time>2016-11-15T11:29:08Z</time>
      </trkpt>
      <trkpt lat="42.95134" lon="0.31732">
        <ele>1726.80533848</ele>
        <time>2016-11-15T11:29:54Z</time>
      </trkpt>
      <trkpt lat="42.95132" lon="0.31744">
        <ele>1727.8052752</ele>
        <time>2016-11-15T11:30:07Z</time>
      </trkpt>
      <trkpt lat="42.95135" lon="0.31755">
        <ele>1731.80538284</ele>
        <time>2016-11-15T11:30:29Z</time>
      </trkpt>
      <trkpt lat="42.95137" lon="0.31767">
        <ele>1733.80545856</ele>
        <time>2016-11-15T11:30:45Z</time>
      </trkpt>
      <trkpt lat="42.95138" lon="0.31769">
        <ele>1734.8055264</ele>
        <time>2016-11-15T11:30:56Z</time>
      </trkpt>
      <trkpt lat="42.95144" lon="0.31785">
        <ele>1741.80575804</ele>
        <time>2016-11-15T11:31:15Z</time>
      </trkpt>
      <trkpt lat="42.95136" lon="0.31791">
        <ele>1739.80544792</ele>
        <time>2016-11-15T11:31:28Z</time>
      </trkpt>
      <trkpt lat="42.95134" lon="0.31803">
        <ele>1739.80537508</ele>
        <time>2016-11-15T11:31:54Z</time>
      </trkpt>
      <trkpt lat="42.95132" lon="0.31814">
        <ele>1742.80527644</ele>
        <time>2016-11-15T11:32:24Z</time>
      </trkpt>
      <trkpt lat="42.95131" lon="0.31826">
        <ele>1746.8052344</ele>
        <time>2016-11-15T11:32:50Z</time>
      </trkpt>
      <trkpt lat="42.9513" lon="0.31838">
        <ele>1748.80520596</ele>
        <time>2016-11-15T11:33:23Z</time>
      </trkpt>
      <trkpt lat="42.95127" lon="0.31849">
        <ele>1747.80509628</ele>
        <time>2016-11-15T11:33:43Z</time>
      </trkpt>
      <trkpt lat="42.95125" lon="0.3186">
        <ele>1749.80499776</ele>
        <time>2016-11-15T11:34:21Z</time>
      </trkpt>
      <trkpt lat="42.9512" lon="0.3187">
        <ele>1753.80479296</ele>
        <time>2016-11-15T11:35:39Z</time>
      </trkpt>
      <trkpt lat="42.95125" lon="0.31873">
        <ele>1753.80500604</ele>
        <time>2016-11-15T11:35:52Z</time>
      </trkpt>
      <trkpt lat="42.95131" lon="0.31884">
        <ele>1751.80524256</ele>
        <time>2016-11-15T11:35:57Z</time>
      </trkpt>
      <trkpt lat="42.95123" lon="0.31883">
        <ele>1749.80492916</ele>
        <time>2016-11-15T11:36:05Z</time>
      </trkpt>
      <trkpt lat="42.95124" lon="0.31895">
        <ele>1753.80497772</ele>
        <time>2016-11-15T11:36:44Z</time>
      </trkpt>
      <trkpt lat="42.95133" lon="0.31901">
        <ele>1756.80530152</ele>
        <time>2016-11-15T11:36:49Z</time>
      </trkpt>
      <trkpt lat="42.95137" lon="0.31912">
        <ele>1754.80546148</ele>
        <time>2016-11-15T11:37:05Z</time>
      </trkpt>
      <trkpt lat="42.95131" lon="0.3192">
        <ele>1753.80524952</ele>
        <time>2016-11-15T11:37:45Z</time>
      </trkpt>
      <trkpt lat="42.95123" lon="0.3192">
        <ele>1759.80490104</ele>
        <time>2016-11-15T11:45:27Z</time>
      </trkpt>
      <trkpt lat="42.95123" lon="0.31908">
        <ele>1758.804923</ele>
        <time>2016-11-15T11:46:03Z</time>
      </trkpt>
      <trkpt lat="42.95119" lon="0.31898">
        <ele>1755.80476276</ele>
        <time>2016-11-15T11:47:31Z</time>
      </trkpt>
      <trkpt lat="42.95119" lon="0.31885">
        <ele>1754.80476344</ele>
        <time>2016-11-15T11:51:23Z</time>
      </trkpt>
      <trkpt lat="42.95126" lon="0.31892">
        <ele>1756.805044</ele>
        <time>2016-11-15T11:53:51Z</time>
      </trkpt>
      <trkpt lat="42.95126" lon="0.31905">
        <ele>1758.80505636</ele>
        <time>2016-11-15T11:54:26Z</time>
      </trkpt>
      <trkpt lat="42.95124" lon="0.31916">
        <ele>1757.80497568</ele>
        <time>2016-11-15T11:54:44Z</time>
      </trkpt>
      <trkpt lat="42.95126" lon="0.31905">
        <ele>1756.80504692</ele>
        <time>2016-11-15T11:55:38Z</time>
      </trkpt>
      <trkpt lat="42.95124" lon="0.31893">
        <ele>1757.8049736</ele>
        <time>2016-11-15T11:55:52Z</time>
      </trkpt>
      <trkpt lat="42.95126" lon="0.31905">
        <ele>1752.80503248</ele>
        <time>2016-11-15T11:58:48Z</time>
      </trkpt>
      <trkpt lat="42.95124" lon="0.31917">
        <ele>1753.8049384</ele>
        <time>2016-11-15T11:59:04Z</time>
      </trkpt>
      <trkpt lat="42.95123" lon="0.31923">
        <ele>1754.80489912</ele>
        <time>2016-11-15T12:00:54Z</time>
      </trkpt>
      <trkpt lat="42.95123" lon="0.31923">
        <ele>1754.80489912</ele>
        <time>2016-11-15T12:00:55Z</time>
      </trkpt>
      <trkpt lat="42.95127" lon="0.31884">
        <ele>1755.80508152</ele>
        <time>2016-11-15T12:49:45Z</time>
      </trkpt>
      <trkpt lat="42.95124" lon="0.31895">
        <ele>1749.80493868</ele>
        <time>2016-11-15T12:50:08Z</time>
      </trkpt>
      <trkpt lat="42.95122" lon="0.31906">
        <ele>1750.80489572</ele>
        <time>2016-11-15T12:50:23Z</time>
      </trkpt>
      <trkpt lat="42.95124" lon="0.31919">
        <ele>1751.80494272</ele>
        <time>2016-11-15T12:50:34Z</time>
      </trkpt>
      <trkpt lat="42.95127" lon="0.3193">
        <ele>1751.80507124</ele>
        <time>2016-11-15T12:51:02Z</time>
      </trkpt>
      <trkpt lat="42.95128" lon="0.31942">
        <ele>1748.80510852</ele>
        <time>2016-11-15T12:57:11Z</time>
      </trkpt>
      <trkpt lat="42.95132" lon="0.31953">
        <ele>1748.80529412</ele>
        <time>2016-11-15T12:57:24Z</time>
      </trkpt>
      <trkpt lat="42.95136" lon="0.31964">
        <ele>1744.80541956</ele>
        <time>2016-11-15T12:57:50Z</time>
      </trkpt>
      <trkpt lat="42.95135" lon="0.31976">
        <ele>1739.805379</ele>
        <time>2016-11-15T12:58:10Z</time>
      </trkpt>
      <trkpt lat="42.95132" lon="0.31987">
        <ele>1737.8052676</ele>
        <time>2016-11-15T12:58:25Z</time>
      </trkpt>
      <trkpt lat="42.95123" lon="0.31992">
        <ele>1732.8049376</ele>
        <time>2016-11-15T12:59:06Z</time>
      </trkpt>
      <trkpt lat="42.95119" lon="0.32002">
        <ele>1730.80475124</ele>
        <time>2016-11-15T12:59:22Z</time>
      </trkpt>
      <trkpt lat="42.95113" lon="0.32011">
        <ele>1729.80453116</ele>
        <time>2016-11-15T12:59:33Z</time>
      </trkpt>
      <trkpt lat="42.9511" lon="0.32023">
        <ele>1727.80439884</ele>
        <time>2016-11-15T12:59:44Z</time>
      </trkpt>
      <trkpt lat="42.95107" lon="0.32033">
        <ele>1726.80428076</ele>
        <time>2016-11-15T12:59:53Z</time>
      </trkpt>
      <trkpt lat="42.95102" lon="0.32042">
        <ele>1726.8040674</ele>
        <time>2016-11-15T13:00:03Z</time>
      </trkpt>
      <trkpt lat="42.95097" lon="0.32051">
        <ele>1726.80386196</ele>
        <time>2016-11-15T13:00:14Z</time>
      </trkpt>
      <trkpt lat="42.95091" lon="0.3206">
        <ele>1725.8036184</ele>
        <time>2016-11-15T13:00:25Z</time>
      </trkpt>
      <trkpt lat="42.95084" lon="0.32068">
        <ele>1724.8033518</ele>
        <time>2016-11-15T13:00:36Z</time>
      </trkpt>
      <trkpt lat="42.95078" lon="0.32078">
        <ele>1723.80313548</ele>
        <time>2016-11-15T13:00:52Z</time>
      </trkpt>
      <trkpt lat="42.95072" lon="0.32086">
        <ele>1721.8028692</ele>
        <time>2016-11-15T13:01:30Z</time>
      </trkpt>
      <trkpt lat="42.95067" lon="0.32095">
        <ele>1721.8026664</ele>
        <time>2016-11-15T13:01:42Z</time>
      </trkpt>
      <trkpt lat="42.95062" lon="0.32105">
        <ele>1720.80248912</ele>
        <time>2016-11-15T13:01:57Z</time>
      </trkpt>
      <trkpt lat="42.95058" lon="0.32115">
        <ele>1719.80231272</ele>
        <time>2016-11-15T13:02:11Z</time>
      </trkpt>
      <trkpt lat="42.95055" lon="0.32126">
        <ele>1717.80221588</ele>
        <time>2016-11-15T13:02:33Z</time>
      </trkpt>
      <trkpt lat="42.95051" lon="0.32136">
        <ele>1717.80204108</ele>
        <time>2016-11-15T13:02:46Z</time>
      </trkpt>
      <trkpt lat="42.95046" lon="0.32146">
        <ele>1721.80184388</ele>
        <time>2016-11-15T13:02:58Z</time>
      </trkpt>
      <trkpt lat="42.9504" lon="0.32155">
        <ele>1720.80161084</ele>
        <time>2016-11-15T13:03:15Z</time>
      </trkpt>
      <trkpt lat="42.95033" lon="0.32162">
        <ele>1720.80133348</ele>
        <time>2016-11-15T13:03:29Z</time>
      </trkpt>
      <trkpt lat="42.95025" lon="0.32166">
        <ele>1719.8010114</ele>
        <time>2016-11-15T13:03:41Z</time>
      </trkpt>
      <trkpt lat="42.95019" lon="0.32174">
        <ele>1717.80077068</ele>
        <time>2016-11-15T13:03:53Z</time>
      </trkpt>
      <trkpt lat="42.95013" lon="0.32181">
        <ele>1716.80051156</ele>
        <time>2016-11-15T13:04:29Z</time>
      </trkpt>
      <trkpt lat="42.95006" lon="0.3219">
        <ele>1716.80025696</ele>
        <time>2016-11-15T13:05:00Z</time>
      </trkpt>
      <trkpt lat="42.95001" lon="0.322">
        <ele>1714.80005324</ele>
        <time>2016-11-15T13:05:17Z</time>
      </trkpt>
      <trkpt lat="42.94996" lon="0.32209">
        <ele>1716.79982064</ele>
        <time>2016-11-15T13:05:25Z</time>
      </trkpt>
      <trkpt lat="42.94991" lon="0.32218">
        <ele>1716.7996298</ele>
        <time>2016-11-15T13:05:35Z</time>
      </trkpt>
      <trkpt lat="42.94985" lon="0.32226">
        <ele>1717.79938448</ele>
        <time>2016-11-15T13:05:46Z</time>
      </trkpt>
      <trkpt lat="42.94977" lon="0.32231">
        <ele>1717.79908828</ele>
        <time>2016-11-15T13:05:56Z</time>
      </trkpt>
      <trkpt lat="42.94971" lon="0.3224">
        <ele>1716.79884364</ele>
        <time>2016-11-15T13:06:14Z</time>
      </trkpt>
      <trkpt lat="42.94964" lon="0.32247">
        <ele>1719.79856004</ele>
        <time>2016-11-15T13:07:12Z</time>
      </trkpt>
      <trkpt lat="42.94959" lon="0.32257">
        <ele>1720.79836696</ele>
        <time>2016-11-15T13:07:28Z</time>
      </trkpt>
      <trkpt lat="42.94957" lon="0.32268">
        <ele>1719.79826284</ele>
        <time>2016-11-15T13:07:43Z</time>
      </trkpt>
      <trkpt lat="42.94953" lon="0.32279">
        <ele>1721.79810908</ele>
        <time>2016-11-15T13:07:57Z</time>
      </trkpt>
      <trkpt lat="42.94951" lon="0.3229">
        <ele>1722.79803488</ele>
        <time>2016-11-15T13:08:09Z</time>
      </trkpt>
      <trkpt lat="42.94949" lon="0.32302">
        <ele>1724.7979702</ele>
        <time>2016-11-15T13:08:23Z</time>
      </trkpt>
      <trkpt lat="42.94944" lon="0.3231">
        <ele>1724.79774852</ele>
        <time>2016-11-15T13:08:35Z</time>
      </trkpt>
      <trkpt lat="42.94939" lon="0.3232">
        <ele>1726.7975514</ele>
        <time>2016-11-15T13:08:49Z</time>
      </trkpt>
      <trkpt lat="42.94937" lon="0.32331">
        <ele>1727.79747028</ele>
        <time>2016-11-15T13:09:07Z</time>
      </trkpt>
      <trkpt lat="42.94934" lon="0.32342">
        <ele>1728.7973484</ele>
        <time>2016-11-15T13:09:19Z</time>
      </trkpt>
      <trkpt lat="42.94931" lon="0.32353">
        <ele>1730.79722304</ele>
        <time>2016-11-15T13:09:38Z</time>
      </trkpt>
      <trkpt lat="42.94924" lon="0.32361">
        <ele>1733.79695812</ele>
        <time>2016-11-15T13:09:58Z</time>
      </trkpt>
      <trkpt lat="42.94917" lon="0.32368">
        <ele>1732.79667652</ele>
        <time>2016-11-15T13:10:15Z</time>
      </trkpt>
      <trkpt lat="42.94912" lon="0.32378">
        <ele>1733.79649076</ele>
        <time>2016-11-15T13:10:27Z</time>
      </trkpt>
      <trkpt lat="42.94907" lon="0.32387">
        <ele>1735.79629368</ele>
        <time>2016-11-15T13:10:40Z</time>
      </trkpt>
      <trkpt lat="42.94902" lon="0.32397">
        <ele>1736.79609752</ele>
        <time>2016-11-15T13:10:55Z</time>
      </trkpt>
      <trkpt lat="42.949" lon="0.32408">
        <ele>1739.79598264</ele>
        <time>2016-11-15T13:11:12Z</time>
      </trkpt>
      <trkpt lat="42.94897" lon="0.32419">
        <ele>1741.79588528</ele>
        <time>2016-11-15T13:11:29Z</time>
      </trkpt>
      <trkpt lat="42.94895" lon="0.3243">
        <ele>1739.79579612</ele>
        <time>2016-11-15T13:11:52Z</time>
      </trkpt>
      <trkpt lat="42.94891" lon="0.32441">
        <ele>1736.79561968</ele>
        <time>2016-11-15T13:14:12Z</time>
      </trkpt>
      <trkpt lat="42.94891" lon="0.32453">
        <ele>1735.79565548</ele>
        <time>2016-11-15T13:16:47Z</time>
      </trkpt>
      <trkpt lat="42.94885" lon="0.3246">
        <ele>1735.79540948</ele>
        <time>2016-11-15T13:20:54Z</time>
      </trkpt>
      <trkpt lat="42.94881" lon="0.3247">
        <ele>1731.79522736</ele>
        <time>2016-11-15T13:21:17Z</time>
      </trkpt>
      <trkpt lat="42.94876" lon="0.32479">
        <ele>1730.7950216</ele>
        <time>2016-11-15T13:21:29Z</time>
      </trkpt>
      <trkpt lat="42.94872" lon="0.3249">
        <ele>1727.79487436</ele>
        <time>2016-11-15T13:21:45Z</time>
      </trkpt>
      <trkpt lat="42.94872" lon="0.32502">
        <ele>1727.794861</ele>
        <time>2016-11-15T13:22:05Z</time>
      </trkpt>
      <trkpt lat="42.94869" lon="0.32512">
        <ele>1724.7947396</ele>
        <time>2016-11-15T13:23:18Z</time>
      </trkpt>
      <trkpt lat="42.94863" lon="0.32521">
        <ele>1720.79451796</ele>
        <time>2016-11-15T13:23:57Z</time>
      </trkpt>
      <trkpt lat="42.94857" lon="0.3253">
        <ele>1719.7942734</ele>
        <time>2016-11-15T13:24:15Z</time>
      </trkpt>
      <trkpt lat="42.94854" lon="0.32541">
        <ele>1716.79414644</ele>
        <time>2016-11-15T13:27:55Z</time>
      </trkpt>
      <trkpt lat="42.94848" lon="0.32549">
        <ele>1713.79391048</ele>
        <time>2016-11-15T13:29:31Z</time>
      </trkpt>
      <trkpt lat="42.94845" lon="0.32559">
        <ele>1712.79378892</ele>
        <time>2016-11-15T13:29:57Z</time>
      </trkpt>
      <trkpt lat="42.9484" lon="0.32569">
        <ele>1710.79359928</ele>
        <time>2016-11-15T13:30:12Z</time>
      </trkpt>
      <trkpt lat="42.94836" lon="0.3258">
        <ele>1711.7934208</ele>
        <time>2016-11-15T13:30:23Z</time>
      </trkpt>
      <trkpt lat="42.9483" lon="0.3259">
        <ele>1710.79321092</ele>
        <time>2016-11-15T13:30:38Z</time>
      </trkpt>
      <trkpt lat="42.94824" lon="0.32598">
        <ele>1709.79297412</ele>
        <time>2016-11-15T13:30:53Z</time>
      </trkpt>
      <trkpt lat="42.94827" lon="0.32609">
        <ele>1710.7930832</ele>
        <time>2016-11-15T13:31:19Z</time>
      </trkpt>
      <trkpt lat="42.94818" lon="0.3261">
        <ele>1709.79273432</ele>
        <time>2016-11-15T13:39:55Z</time>
      </trkpt>
      <trkpt lat="42.94816" lon="0.32622">
        <ele>1705.79265572</ele>
        <time>2016-11-15T13:40:11Z</time>
      </trkpt>
      <trkpt lat="42.94811" lon="0.32631">
        <ele>1704.79244756</ele>
        <time>2016-11-15T13:40:27Z</time>
      </trkpt>
      <trkpt lat="42.94807" lon="0.32642">
        <ele>1702.79228512</ele>
        <time>2016-11-15T13:40:42Z</time>
      </trkpt>
      <trkpt lat="42.94802" lon="0.32652">
        <ele>1700.79209196</ele>
        <time>2016-11-15T13:41:00Z</time>
      </trkpt>
      <trkpt lat="42.94798" lon="0.32662">
        <ele>1698.79192044</ele>
        <time>2016-11-15T13:41:17Z</time>
      </trkpt>
      <trkpt lat="42.94793" lon="0.32672">
        <ele>1693.79171564</ele>
        <time>2016-11-15T13:41:38Z</time>
      </trkpt>
      <trkpt lat="42.94789" lon="0.32683">
        <ele>1689.79155344</ele>
        <time>2016-11-15T13:41:55Z</time>
      </trkpt>
      <trkpt lat="42.94785" lon="0.32693">
        <ele>1689.79140344</ele>
        <time>2016-11-15T13:42:15Z</time>
      </trkpt>
      <trkpt lat="42.94782" lon="0.32705">
        <ele>1690.79128828</ele>
        <time>2016-11-15T13:42:28Z</time>
      </trkpt>
      <trkpt lat="42.94777" lon="0.32713">
        <ele>1691.79105848</ele>
        <time>2016-11-15T13:43:49Z</time>
      </trkpt>
      <trkpt lat="42.94773" lon="0.32724">
        <ele>1690.7909162</ele>
        <time>2016-11-15T13:44:05Z</time>
      </trkpt>
      <trkpt lat="42.94769" lon="0.32735">
        <ele>1689.790763</ele>
        <time>2016-11-15T13:44:19Z</time>
      </trkpt>
      <trkpt lat="42.94768" lon="0.32747">
        <ele>1690.79073688</ele>
        <time>2016-11-15T13:44:30Z</time>
      </trkpt>
      <trkpt lat="42.94769" lon="0.32758">
        <ele>1690.79077628</ele>
        <time>2016-11-15T13:44:42Z</time>
      </trkpt>
      <trkpt lat="42.9477" lon="0.32769">
        <ele>1689.79080604</ele>
        <time>2016-11-15T13:44:55Z</time>
      </trkpt>
      <trkpt lat="42.94767" lon="0.3278">
        <ele>1690.79068044</ele>
        <time>2016-11-15T13:45:17Z</time>
      </trkpt>
      <trkpt lat="42.94763" lon="0.32791">
        <ele>1693.7905048</ele>
        <time>2016-11-15T13:48:54Z</time>
      </trkpt>
      <trkpt lat="42.94765" lon="0.32803">
        <ele>1692.7905912</ele>
        <time>2016-11-15T14:05:16Z</time>
      </trkpt>
      <trkpt lat="42.94774" lon="0.32805">
        <ele>1691.79093828</ele>
        <time>2016-11-15T14:06:13Z</time>
      </trkpt>
      <trkpt lat="42.94765" lon="0.328">
        <ele>1690.7906176</ele>
        <time>2016-11-15T14:07:34Z</time>
      </trkpt>
      <trkpt lat="42.94773" lon="0.32793">
        <ele>1694.79093024</ele>
        <time>2016-11-15T14:23:59Z</time>
      </trkpt>
      <trkpt lat="42.94765" lon="0.32793">
        <ele>1695.79058068</ele>
        <time>2016-11-15T14:30:13Z</time>
      </trkpt>
      <trkpt lat="42.94757" lon="0.32796">
        <ele>1695.7902684</ele>
        <time>2016-11-15T14:30:30Z</time>
      </trkpt>
      <trkpt lat="42.9475" lon="0.32803">
        <ele>1692.7900086</ele>
        <time>2016-11-15T14:30:42Z</time>
      </trkpt>
      <trkpt lat="42.94744" lon="0.32811">
        <ele>1690.78977064</ele>
        <time>2016-11-15T14:30:53Z</time>
      </trkpt>
      <trkpt lat="42.9474" lon="0.32822">
        <ele>1690.78961528</ele>
        <time>2016-11-15T14:31:03Z</time>
      </trkpt>
      <trkpt lat="42.94736" lon="0.32831">
        <ele>1690.78943384</ele>
        <time>2016-11-15T14:31:12Z</time>
      </trkpt>
      <trkpt lat="42.94731" lon="0.32841">
        <ele>1690.78924464</ele>
        <time>2016-11-15T14:31:23Z</time>
      </trkpt>
      <trkpt lat="42.94725" lon="0.32849">
        <ele>1687.78900588</ele>
        <time>2016-11-15T14:31:38Z</time>
      </trkpt>
      <trkpt lat="42.94723" lon="0.32861">
        <ele>1685.78890272</ele>
        <time>2016-11-15T14:31:49Z</time>
      </trkpt>
      <trkpt lat="42.94717" lon="0.3287">
        <ele>1682.78868008</ele>
        <time>2016-11-15T14:32:03Z</time>
      </trkpt>
      <trkpt lat="42.94712" lon="0.32879">
        <ele>1682.78849792</ele>
        <time>2016-11-15T14:32:12Z</time>
      </trkpt>
      <trkpt lat="42.94707" lon="0.32888">
        <ele>1683.78827248</ele>
        <time>2016-11-15T14:32:21Z</time>
      </trkpt>
      <trkpt lat="42.94701" lon="0.32897">
        <ele>1681.78803892</ele>
        <time>2016-11-15T14:32:31Z</time>
      </trkpt>
      <trkpt lat="42.94696" lon="0.32905">
        <ele>1680.78782652</ele>
        <time>2016-11-15T14:32:40Z</time>
      </trkpt>
      <trkpt lat="42.94692" lon="0.32915">
        <ele>1680.78767228</ele>
        <time>2016-11-15T14:32:50Z</time>
      </trkpt>
      <trkpt lat="42.94685" lon="0.32923">
        <ele>1678.78739244</ele>
        <time>2016-11-15T14:33:04Z</time>
      </trkpt>
      <trkpt lat="42.94677" lon="0.32928">
        <ele>1677.78709036</ele>
        <time>2016-11-15T14:33:14Z</time>
      </trkpt>
      <trkpt lat="42.94669" lon="0.32933">
        <ele>1675.78676676</ele>
        <time>2016-11-15T14:33:25Z</time>
      </trkpt>
      <trkpt lat="42.94662" lon="0.32939">
        <ele>1672.78648152</ele>
        <time>2016-11-15T14:33:38Z</time>
      </trkpt>
      <trkpt lat="42.94656" lon="0.32946">
        <ele>1669.7862226</ele>
        <time>2016-11-15T14:33:48Z</time>
      </trkpt>
      <trkpt lat="42.94648" lon="0.32952">
        <ele>1665.78593516</ele>
        <time>2016-11-15T14:34:03Z</time>
      </trkpt>
      <trkpt lat="42.94642" lon="0.32961">
        <ele>1662.7856854</ele>
        <time>2016-11-15T14:34:16Z</time>
      </trkpt>
      <trkpt lat="42.94637" lon="0.32969">
        <ele>1660.7854594</ele>
        <time>2016-11-15T14:34:26Z</time>
      </trkpt>
      <trkpt lat="42.94634" lon="0.3298">
        <ele>1660.78534284</ele>
        <time>2016-11-15T14:34:37Z</time>
      </trkpt>
      <trkpt lat="42.94627" lon="0.32988">
        <ele>1658.78506956</ele>
        <time>2016-11-15T14:34:50Z</time>
      </trkpt>
      <trkpt lat="42.94618" lon="0.32987">
        <ele>1653.784724</ele>
        <time>2016-11-15T14:35:17Z</time>
      </trkpt>
      <trkpt lat="42.9461" lon="0.32981">
        <ele>1650.7844136</ele>
        <time>2016-11-15T14:35:32Z</time>
      </trkpt>
      <trkpt lat="42.94604" lon="0.32973">
        <ele>1647.78414076</ele>
        <time>2016-11-15T14:35:50Z</time>
      </trkpt>
      <trkpt lat="42.94601" lon="0.32964">
        <ele>1643.78403652</ele>
        <time>2016-11-15T14:36:06Z</time>
      </trkpt>
      <trkpt lat="42.94601" lon="0.32952">
        <ele>1645.78403868</ele>
        <time>2016-11-15T14:36:13Z</time>
      </trkpt>
      <trkpt lat="42.94602" lon="0.32941">
        <ele>1646.78407088</ele>
        <time>2016-11-15T14:36:22Z</time>
      </trkpt>
      <trkpt lat="42.94602" lon="0.32929">
        <ele>1640.78408356</ele>
        <time>2016-11-15T14:36:38Z</time>
      </trkpt>
      <trkpt lat="42.946" lon="0.32918">
        <ele>1637.78399476</ele>
        <time>2016-11-15T14:36:51Z</time>
      </trkpt>
      <trkpt lat="42.94598" lon="0.32907">
        <ele>1638.7839126</ele>
        <time>2016-11-15T14:37:02Z</time>
      </trkpt>
      <trkpt lat="42.94598" lon="0.32895">
        <ele>1639.78392284</ele>
        <time>2016-11-15T14:37:08Z</time>
      </trkpt>
      <trkpt lat="42.94601" lon="0.32884">
        <ele>1638.78404104</ele>
        <time>2016-11-15T14:37:14Z</time>
      </trkpt>
      <trkpt lat="42.94604" lon="0.32873">
        <ele>1636.78415252</ele>
        <time>2016-11-15T14:37:29Z</time>
      </trkpt>
      <trkpt lat="42.94606" lon="0.32862">
        <ele>1634.78422124</ele>
        <time>2016-11-15T14:37:43Z</time>
      </trkpt>
      <trkpt lat="42.94607" lon="0.32851">
        <ele>1633.78426288</ele>
        <time>2016-11-15T14:37:53Z</time>
      </trkpt>
      <trkpt lat="42.94608" lon="0.32839">
        <ele>1633.78433612</ele>
        <time>2016-11-15T14:38:07Z</time>
      </trkpt>
      <trkpt lat="42.94607" lon="0.32828">
        <ele>1631.78428896</ele>
        <time>2016-11-15T14:38:16Z</time>
      </trkpt>
      <trkpt lat="42.94606" lon="0.32816">
        <ele>1627.78425376</ele>
        <time>2016-11-15T14:38:30Z</time>
      </trkpt>
      <trkpt lat="42.94602" lon="0.32806">
        <ele>1626.78408528</ele>
        <time>2016-11-15T14:38:45Z</time>
      </trkpt>
      <trkpt lat="42.94601" lon="0.32798">
        <ele>1626.78402656</ele>
        <time>2016-11-15T14:38:54Z</time>
      </trkpt>
      <trkpt lat="42.94597" lon="0.3279">
        <ele>1621.78386684</ele>
        <time>2016-11-15T14:39:39Z</time>
      </trkpt>
      <trkpt lat="42.94597" lon="0.32778">
        <ele>1618.78389032</ele>
        <time>2016-11-15T14:39:50Z</time>
      </trkpt>
      <trkpt lat="42.94593" lon="0.32769">
        <ele>1616.78373404</ele>
        <time>2016-11-15T14:40:02Z</time>
      </trkpt>
      <trkpt lat="42.9459" lon="0.32759">
        <ele>1613.7835794</ele>
        <time>2016-11-15T14:40:13Z</time>
      </trkpt>
      <trkpt lat="42.94583" lon="0.32751">
        <ele>1612.78331628</ele>
        <time>2016-11-15T14:40:29Z</time>
      </trkpt>
      <trkpt lat="42.94581" lon="0.32739">
        <ele>1608.78325568</ele>
        <time>2016-11-15T14:40:40Z</time>
      </trkpt>
      <trkpt lat="42.94576" lon="0.32729">
        <ele>1604.78305316</ele>
        <time>2016-11-15T14:40:51Z</time>
      </trkpt>
      <trkpt lat="42.94569" lon="0.32722">
        <ele>1602.78277144</ele>
        <time>2016-11-15T14:41:09Z</time>
      </trkpt>
      <trkpt lat="42.94563" lon="0.32714">
        <ele>1598.78251904</ele>
        <time>2016-11-15T14:41:26Z</time>
      </trkpt>
      <trkpt lat="42.94555" lon="0.32708">
        <ele>1595.78220552</ele>
        <time>2016-11-15T14:41:39Z</time>
      </trkpt>
      <trkpt lat="42.94547" lon="0.32704">
        <ele>1598.7818792</ele>
        <time>2016-11-15T14:41:50Z</time>
      </trkpt>
      <trkpt lat="42.94539" lon="0.32706">
        <ele>1596.7815494</ele>
        <time>2016-11-15T14:42:14Z</time>
      </trkpt>
      <trkpt lat="42.9453" lon="0.32708">
        <ele>1589.7811948</ele>
        <time>2016-11-15T14:42:48Z</time>
      </trkpt>
      <trkpt lat="42.94522" lon="0.32715">
        <ele>1586.78089676</ele>
        <time>2016-11-15T14:43:06Z</time>
      </trkpt>
      <trkpt lat="42.94515" lon="0.3272">
        <ele>1584.78059432</ele>
        <time>2016-11-15T14:44:09Z</time>
      </trkpt>
      <trkpt lat="42.94508" lon="0.32728">
        <ele>1581.78031452</ele>
        <time>2016-11-15T14:44:36Z</time>
      </trkpt>
      <trkpt lat="42.94502" lon="0.32736">
        <ele>1579.78006856</ele>
        <time>2016-11-15T14:44:50Z</time>
      </trkpt>
      <trkpt lat="42.94495" lon="0.32743">
        <ele>1578.7798176</ele>
        <time>2016-11-15T14:45:02Z</time>
      </trkpt>
      <trkpt lat="42.94491" lon="0.32752">
        <ele>1575.77961828</ele>
        <time>2016-11-15T14:45:15Z</time>
      </trkpt>
      <trkpt lat="42.94483" lon="0.32759">
        <ele>1574.77932388</ele>
        <time>2016-11-15T14:45:28Z</time>
      </trkpt>
      <trkpt lat="42.94475" lon="0.32754">
        <ele>1570.77900364</ele>
        <time>2016-11-15T14:46:01Z</time>
      </trkpt>
      <trkpt lat="42.9447" lon="0.32745">
        <ele>1567.77877832</ele>
        <time>2016-11-15T14:46:46Z</time>
      </trkpt>
      <trkpt lat="42.94461" lon="0.32745">
        <ele>1565.77844148</ele>
        <time>2016-11-15T14:47:00Z</time>
      </trkpt>
      <trkpt lat="42.94454" lon="0.32752">
        <ele>1563.77816892</ele>
        <time>2016-11-15T14:47:12Z</time>
      </trkpt>
      <trkpt lat="42.94447" lon="0.32756">
        <ele>1563.77787136</ele>
        <time>2016-11-15T14:47:23Z</time>
      </trkpt>
      <trkpt lat="42.9444" lon="0.32764">
        <ele>1560.77758368</ele>
        <time>2016-11-15T14:50:06Z</time>
      </trkpt>
      <trkpt lat="42.94435" lon="0.32774">
        <ele>1554.77741644</ele>
        <time>2016-11-15T14:50:28Z</time>
      </trkpt>
      <trkpt lat="42.94433" lon="0.32785">
        <ele>1552.77731248</ele>
        <time>2016-11-15T14:50:45Z</time>
      </trkpt>
      <trkpt lat="42.94429" lon="0.32796">
        <ele>1549.77716892</ele>
        <time>2016-11-15T14:51:01Z</time>
      </trkpt>
      <trkpt lat="42.94428" lon="0.32808">
        <ele>1547.7771018</ele>
        <time>2016-11-15T14:51:15Z</time>
      </trkpt>
      <trkpt lat="42.94423" lon="0.32818">
        <ele>1545.77690704</ele>
        <time>2016-11-15T14:51:31Z</time>
      </trkpt>
      <trkpt lat="42.94418" lon="0.32828">
        <ele>1542.7767234</ele>
        <time>2016-11-15T14:51:52Z</time>
      </trkpt>
      <trkpt lat="42.9441" lon="0.32822">
        <ele>1539.7764118</ele>
        <time>2016-11-15T14:52:29Z</time>
      </trkpt>
      <trkpt lat="42.94401" lon="0.32821">
        <ele>1535.77605792</ele>
        <time>2016-11-15T14:52:55Z</time>
      </trkpt>
      <trkpt lat="42.94395" lon="0.32813">
        <ele>1534.77578412</ele>
        <time>2016-11-15T14:53:50Z</time>
      </trkpt>
      <trkpt lat="42.94388" lon="0.32805">
        <ele>1531.7755288</ele>
        <time>2016-11-15T14:54:09Z</time>
      </trkpt>
      <trkpt lat="42.94381" lon="0.32798">
        <ele>1525.77524956</ele>
        <time>2016-11-15T14:54:33Z</time>
      </trkpt>
      <trkpt lat="42.94374" lon="0.32792">
        <ele>1524.77494568</ele>
        <time>2016-11-15T14:54:52Z</time>
      </trkpt>
      <trkpt lat="42.94365" lon="0.32792">
        <ele>1518.77459084</ele>
        <time>2016-11-15T14:56:35Z</time>
      </trkpt>
      <trkpt lat="42.94358" lon="0.32801">
        <ele>1516.77433352</ele>
        <time>2016-11-15T14:56:46Z</time>
      </trkpt>
      <trkpt lat="42.94352" lon="0.32807">
        <ele>1515.77407148</ele>
        <time>2016-11-15T14:56:54Z</time>
      </trkpt>
      <trkpt lat="42.94345" lon="0.32816">
        <ele>1512.77381136</ele>
        <time>2016-11-15T14:57:04Z</time>
      </trkpt>
      <trkpt lat="42.94339" lon="0.32825">
        <ele>1509.7735728</ele>
        <time>2016-11-15T14:57:15Z</time>
      </trkpt>
      <trkpt lat="42.94338" lon="0.32814">
        <ele>1505.77351648</ele>
        <time>2016-11-15T14:57:27Z</time>
      </trkpt>
      <trkpt lat="42.94333" lon="0.32804">
        <ele>1505.7733188</ele>
        <time>2016-11-15T14:57:35Z</time>
      </trkpt>
      <trkpt lat="42.94328" lon="0.32795">
        <ele>1505.77311024</ele>
        <time>2016-11-15T14:57:45Z</time>
      </trkpt>
      <trkpt lat="42.94321" lon="0.32787">
        <ele>1503.77285248</ele>
        <time>2016-11-15T14:57:54Z</time>
      </trkpt>
      <trkpt lat="42.94314" lon="0.32779">
        <ele>1500.77257304</ele>
        <time>2016-11-15T14:58:05Z</time>
      </trkpt>
      <trkpt lat="42.94309" lon="0.32771">
        <ele>1498.77234236</ele>
        <time>2016-11-15T14:58:16Z</time>
      </trkpt>
      <trkpt lat="42.94303" lon="0.32763">
        <ele>1498.77210664</ele>
        <time>2016-11-15T14:58:28Z</time>
      </trkpt>
      <trkpt lat="42.94294" lon="0.32762">
        <ele>1496.77175284</ele>
        <time>2016-11-15T14:58:52Z</time>
      </trkpt>
      <trkpt lat="42.94286" lon="0.32767">
        <ele>1496.77142568</ele>
        <time>2016-11-15T15:00:15Z</time>
      </trkpt>
      <trkpt lat="42.94277" lon="0.32765">
        <ele>1494.77108428</ele>
        <time>2016-11-15T15:00:29Z</time>
      </trkpt>
      <trkpt lat="42.94269" lon="0.3276">
        <ele>1492.77076096</ele>
        <time>2016-11-15T15:00:41Z</time>
      </trkpt>
      <trkpt lat="42.9426" lon="0.32757">
        <ele>1491.77041464</ele>
        <time>2016-11-15T15:00:52Z</time>
      </trkpt>
      <trkpt lat="42.94253" lon="0.32753">
        <ele>1491.77010992</ele>
        <time>2016-11-15T15:01:02Z</time>
      </trkpt>
      <trkpt lat="42.94244" lon="0.3275">
        <ele>1491.76976524</ele>
        <time>2016-11-15T15:01:11Z</time>
      </trkpt>
      <trkpt lat="42.94236" lon="0.32749">
        <ele>1491.7694354</ele>
        <time>2016-11-15T15:01:19Z</time>
      </trkpt>
      <trkpt lat="42.94229" lon="0.32743">
        <ele>1489.76915872</ele>
        <time>2016-11-15T15:01:29Z</time>
      </trkpt>
      <trkpt lat="42.94222" lon="0.32736">
        <ele>1485.76889084</ele>
        <time>2016-11-15T15:03:24Z</time>
      </trkpt>
      <trkpt lat="42.94221" lon="0.32735">
        <ele>1485.7688208</ele>
        <time>2016-11-15T15:09:10Z</time>
      </trkpt>
      <trkpt lat="42.94221" lon="0.32735">
        <ele>1485.7688208</ele>
        <time>2016-11-15T15:09:11Z</time>
      </trkpt>
    </trkseg>
  </trk>
</gpx>